createdAt,value
2022-09-05T00:01:52.071Z,19.32
2022-09-05T00:04:52.740Z,19.32
2022-09-05T00:07:58.335Z,19.31
2022-09-05T00:11:41.471Z,19.30
2022-09-05T00:15:14.673Z,19.29
2022-09-05T00:21:10.491Z,19.28
2022-09-05T00:24:30.240Z,19.27
2022-09-05T00:24:35.777Z,19.27
2022-09-05T00:27:15.899Z,19.26
2022-09-05T00:31:07.224Z,19.25
2022-09-05T00:33:39.331Z,19.24
2022-09-05T00:36:17.932Z,19.23
2022-09-05T00:38:56.815Z,19.23
2022-09-05T00:41:24.609Z,19.22
2022-09-05T00:43:52.723Z,19.22
2022-09-05T00:46:32.801Z,19.23
2022-09-05T00:49:25.192Z,19.22
2022-09-05T00:52:07.833Z,19.21
2022-09-05T00:54:58.700Z,19.19
2022-09-05T00:57:37.744Z,19.20
2022-09-05T01:00:04.681Z,19.16
2022-09-05T01:02:32.032Z,19.17
2022-09-05T01:05:27.882Z,19.16
2022-09-05T01:08:15.728Z,19.15
2022-09-05T01:11:04.028Z,19.15
2022-09-05T01:14:01.113Z,19.15
2022-09-05T01:16:35.058Z,19.14
2022-09-05T01:19:18.696Z,19.13
2022-09-05T01:22:04.060Z,19.14
2022-09-05T01:24:49.437Z,19.15
2022-09-05T01:28:23.651Z,19.13
2022-09-05T01:31:06.818Z,19.13
2022-09-05T01:33:40.058Z,19.12
2022-09-05T01:36:18.874Z,19.10
2022-09-05T01:40:11.896Z,19.09
2022-09-05T01:41:49.446Z,19.09
2022-09-05T01:44:39.567Z,19.07
2022-09-05T01:47:06.421Z,19.07
2022-09-05T01:50:01.191Z,19.07
2022-09-05T01:52:57.112Z,19.08
2022-09-05T01:56:05.586Z,19.06
2022-09-05T01:58:40.787Z,19.06
2022-09-05T02:01:26.599Z,19.05
2022-09-05T02:04:24.556Z,19.06
2022-09-05T02:07:15.229Z,19.05
2022-09-05T02:10:20.481Z,19.05
2022-09-05T02:12:58.465Z,19.04
2022-09-05T02:16:24.685Z,19.04
2022-09-05T02:19:09.731Z,19.04
2022-09-05T02:21:42.279Z,19.04
2022-09-05T02:24:33.180Z,19.03
2022-09-05T02:28:03.971Z,19.02
2022-09-05T02:30:22.885Z,19.01
2022-09-05T02:33:06.064Z,19.01
2022-09-05T02:35:35.893Z,19.02
2022-09-05T02:40:02.330Z,19.01
2022-09-05T02:45:07.734Z,19.00
2022-09-05T02:45:20.114Z,18.98
2022-09-05T02:46:50.968Z,18.96
2022-09-05T02:51:17.245Z,18.94
2022-09-05T02:57:26.637Z,18.93
2022-09-05T02:57:34.568Z,18.94
2022-09-05T02:58:22.535Z,18.95
2022-09-05T03:01:03.019Z,18.94
2022-09-05T03:03:56.605Z,18.94
2022-09-05T03:06:34.885Z,18.94
2022-09-05T03:09:16.757Z,18.94
2022-09-05T03:12:28.622Z,18.94
2022-09-05T03:15:02.388Z,18.93
2022-09-05T03:18:21.140Z,18.91
2022-09-05T03:21:26.759Z,18.92
2022-09-05T03:24:11.740Z,18.91
2022-09-05T03:27:20.215Z,18.91
2022-09-05T03:29:58.514Z,18.91
2022-09-05T03:32:59.941Z,18.90
2022-09-05T03:35:54.535Z,18.89
2022-09-05T03:38:53.205Z,18.88
2022-09-05T03:41:40.738Z,18.87
2022-09-05T03:44:29.674Z,18.89
2022-09-05T03:47:16.750Z,18.87
2022-09-05T03:54:17.140Z,18.87
2022-09-05T03:57:10.635Z,18.88
2022-09-05T03:57:14.287Z,18.88
2022-09-05T03:59:32.977Z,18.87
2022-09-05T04:04:07.108Z,18.87
2022-09-05T04:08:17.538Z,18.86
2022-09-05T04:08:32.128Z,18.88
2022-09-05T04:11:03.323Z,18.87
2022-09-05T04:13:35.312Z,18.87
2022-09-05T04:16:23.580Z,18.87
2022-09-05T04:19:14.939Z,18.86
2022-09-05T04:21:55.409Z,18.85
2022-09-05T04:24:28.216Z,18.85
2022-09-05T04:27:00.653Z,18.86
2022-09-05T04:29:54.804Z,18.86
2022-09-05T04:32:30.442Z,18.85
2022-09-05T04:35:23.889Z,18.85
2022-09-05T04:37:56.821Z,18.85
2022-09-05T04:40:42.109Z,18.88
2022-09-05T04:43:27.535Z,18.90
2022-09-05T04:46:24.680Z,18.91
2022-09-05T04:49:05.860Z,18.90
2022-09-05T04:52:07.518Z,18.91
2022-09-05T04:54:41.558Z,18.91
2022-09-05T04:57:11.772Z,18.91
2022-09-05T05:04:13.784Z,18.92
2022-09-05T05:05:59.978Z,18.92
2022-09-05T05:06:30.108Z,18.94
2022-09-05T05:09:05.522Z,18.95
2022-09-05T05:17:57.330Z,18.95
2022-09-05T05:18:09.041Z,18.96
2022-09-05T05:18:14.077Z,18.98
2022-09-05T05:20:56.316Z,19.02
2022-09-05T05:23:57.255Z,19.05
2022-09-05T05:26:37.340Z,19.08
2022-09-05T05:29:19.428Z,19.09
2022-09-05T05:32:00.331Z,19.11
2022-09-05T05:34:34.360Z,19.15
2022-09-05T05:37:47.726Z,19.17
2022-09-05T05:40:17.687Z,19.18
2022-09-05T05:42:46.698Z,19.19
2022-09-05T05:45:21.017Z,19.21
2022-09-05T05:47:54.084Z,19.22
2022-09-05T05:50:52.997Z,19.24
2022-09-05T05:53:29.209Z,19.24
2022-09-05T05:56:28.281Z,19.25
2022-09-05T05:59:11.441Z,19.28
2022-09-05T06:01:50.314Z,19.29
2022-09-05T06:04:32.360Z,19.28
2022-09-05T06:07:05.065Z,19.29
2022-09-05T06:14:49.251Z,19.29
2022-09-05T06:14:52.832Z,19.28
2022-09-05T06:16:19.128Z,19.30
2022-09-05T06:19:04.983Z,19.30
2022-09-05T06:22:11.120Z,19.32
2022-09-05T06:24:54.638Z,19.33
2022-09-05T06:28:18.375Z,19.32
2022-09-05T06:31:29.840Z,19.33
2022-09-05T06:34:07.694Z,19.32
2022-09-05T06:37:17.680Z,19.33
2022-09-05T06:40:12.300Z,19.29
2022-09-05T06:42:57.163Z,19.26
2022-09-05T06:45:42.136Z,19.27
2022-09-05T06:48:27.844Z,19.28
2022-09-05T06:51:16.799Z,19.27
2022-09-05T06:53:43.649Z,19.26
2022-09-05T06:56:40.744Z,19.26
2022-09-05T06:59:25.847Z,19.26
2022-09-05T07:02:08.831Z,19.25
2022-09-05T07:05:38.336Z,19.24
2022-09-05T07:07:49.280Z,19.23
2022-09-05T07:10:38.398Z,19.22
2022-09-05T07:13:34.153Z,19.22
2022-09-05T07:16:17.870Z,19.20
2022-09-05T07:19:57.926Z,19.19
2022-09-05T07:22:47.306Z,19.19
2022-09-05T07:25:26.176Z,19.18
2022-09-05T07:28:26.456Z,19.19
2022-09-05T07:31:04.825Z,19.19
2022-09-05T07:33:32.303Z,19.17
2022-09-05T07:36:08.651Z,19.17
2022-09-05T07:38:52.062Z,19.15
2022-09-05T07:41:22.574Z,19.17
2022-09-05T07:44:24.445Z,19.17
2022-09-05T07:47:01.891Z,19.17
2022-09-05T07:49:31.197Z,19.17
2022-09-05T07:56:58.566Z,19.18
2022-09-05T07:57:10.214Z,19.18
2022-09-05T07:57:51.293Z,19.18
2022-09-05T08:00:27.143Z,19.20
2022-09-05T08:02:59.609Z,19.20
2022-09-05T08:05:34.995Z,19.19
2022-09-05T08:08:07.259Z,19.21
2022-09-05T08:11:22.527Z,19.19
2022-09-05T08:14:38.432Z,19.20
2022-09-05T08:16:46.850Z,19.20
2022-09-05T08:19:50.595Z,19.21
2022-09-05T08:22:24.701Z,19.22
2022-09-05T08:25:02.947Z,19.24
2022-09-05T08:27:44.238Z,19.24
2022-09-05T08:30:26.629Z,19.23
2022-09-05T08:33:12.138Z,19.26
2022-09-05T08:35:45.769Z,19.27
2022-09-05T08:38:15.710Z,19.30
2022-09-05T08:40:49.420Z,19.31
2022-09-05T08:46:14.570Z,19.28
2022-09-05T08:46:44.407Z,19.31
2022-09-05T08:49:59.523Z,19.35
2022-09-05T08:52:49.866Z,19.35
2022-09-05T08:55:34.644Z,19.38
2022-09-05T08:58:05.197Z,19.39
2022-09-05T09:01:15.804Z,19.39
2022-09-05T09:04:26.737Z,19.44
2022-09-05T09:07:51.166Z,19.47
2022-09-05T09:10:55.931Z,19.49
2022-09-05T09:13:43.687Z,19.51
2022-09-05T09:16:36.130Z,19.54
2022-09-05T09:19:06.002Z,19.55
2022-09-05T09:21:56.685Z,19.54
2022-09-05T09:24:40.979Z,19.54
2022-09-05T09:27:27.273Z,19.53
2022-09-05T09:30:07.357Z,19.50
2022-09-05T09:32:55.288Z,19.51
2022-09-05T09:35:25.905Z,19.50
2022-09-05T09:38:20.531Z,19.51
2022-09-05T09:41:22.061Z,19.49
2022-09-05T09:44:29.566Z,19.48
2022-09-05T09:46:57.344Z,19.46
2022-09-05T09:49:42.796Z,19.46
2022-09-05T09:52:21.246Z,19.46
2022-09-05T09:55:21.455Z,19.48
2022-09-05T09:58:42.902Z,19.47
2022-09-05T10:01:35.920Z,19.47
2022-09-05T10:10:38.917Z,19.49
2022-09-05T10:10:54.223Z,19.47
2022-09-05T10:11:40.179Z,19.47
2022-09-05T10:14:07.615Z,19.47
2022-09-05T10:17:28.411Z,19.47
2022-09-05T10:20:24.980Z,19.47
2022-09-05T10:23:13.084Z,19.49
2022-09-05T10:25:58.268Z,19.54
2022-09-05T10:29:11.775Z,19.57
2022-09-05T10:35:15.320Z,19.62
2022-09-05T10:35:22.714Z,19.58
2022-09-05T10:37:45.725Z,19.64
2022-09-05T10:40:17.529Z,19.64
2022-09-05T10:43:00.177Z,19.65
2022-09-05T10:45:50.019Z,19.65
2022-09-05T10:48:28.331Z,19.69
2022-09-05T10:51:27.816Z,19.68
2022-09-05T10:53:58.987Z,19.70
2022-09-05T10:57:04.554Z,19.73
2022-09-05T11:02:23.327Z,19.73
2022-09-05T11:02:57.810Z,19.77
2022-09-05T11:05:35.174Z,19.83
2022-09-05T11:08:11.900Z,19.89
2022-09-05T11:11:34.033Z,19.96
2022-09-05T11:14:26.694Z,20.02
2022-09-05T11:17:05.580Z,20.06
2022-09-05T11:19:40.359Z,20.12
2022-09-05T11:22:22.962Z,20.13
2022-09-05T11:25:02.385Z,20.15
2022-09-05T11:27:50.937Z,20.18
2022-09-05T11:30:29.992Z,20.19
2022-09-05T11:39:53.971Z,20.21
2022-09-05T11:40:07.749Z,20.25
2022-09-05T11:40:28.844Z,20.27
2022-09-05T11:43:09.825Z,20.30
2022-09-05T11:45:42.743Z,20.33
2022-09-05T11:48:13.217Z,20.34
2022-09-05T11:51:01.480Z,20.35
2022-09-05T11:53:53.511Z,20.37
2022-09-05T11:57:11.393Z,20.37
2022-09-05T12:00:32.660Z,20.34
2022-09-05T12:03:57.546Z,20.38
2022-09-05T12:06:47.967Z,20.45
2022-09-05T12:09:44.759Z,20.44
2022-09-05T12:12:38.713Z,20.44
2022-09-05T12:15:22.734Z,20.47
2022-09-05T12:17:53.487Z,20.46
2022-09-05T12:20:25.909Z,20.46
2022-09-05T12:23:24.902Z,20.48
2022-09-05T12:27:38.930Z,20.47
2022-09-05T12:29:36.365Z,20.48
2022-09-05T12:33:36.611Z,20.50
2022-09-05T12:36:10.518Z,20.51
2022-09-05T12:40:54.319Z,20.52
2022-09-05T12:41:35.259Z,20.52
2022-09-05T12:44:40.227Z,20.52
2022-09-05T12:47:19.220Z,20.51
2022-09-05T12:50:14.070Z,20.51
2022-09-05T12:52:52.291Z,20.52
2022-09-05T12:55:32.732Z,20.53
2022-09-05T13:03:03.321Z,20.54
2022-09-05T13:03:04.085Z,20.57
2022-09-05T13:04:37.678Z,20.58
2022-09-05T13:07:39.306Z,20.58
2022-09-05T13:13:48.581Z,20.57
2022-09-05T13:14:56.436Z,20.54
2022-09-05T13:16:32.210Z,20.52
2022-09-05T13:19:08.679Z,20.53
2022-09-05T13:21:41.466Z,20.54
2022-09-05T13:24:17.702Z,20.51
2022-09-05T13:27:09.047Z,20.52
2022-09-05T13:30:26.149Z,20.54
2022-09-05T13:38:06.610Z,20.55
2022-09-05T13:38:13.809Z,20.58
2022-09-05T13:38:47.518Z,20.59
2022-09-05T13:41:27.779Z,20.57
2022-09-05T13:44:00.354Z,20.54
2022-09-05T13:47:29.465Z,20.52
2022-09-05T13:50:44.061Z,20.54
2022-09-05T13:53:16.755Z,20.55
2022-09-05T13:55:49.195Z,20.54
2022-09-05T13:58:32.721Z,20.55
2022-09-05T14:01:39.591Z,20.54
2022-09-05T14:05:14.907Z,20.51
2022-09-05T14:08:01.196Z,20.50
2022-09-05T14:11:02.532Z,20.48
2022-09-05T14:13:40.287Z,20.49
2022-09-05T14:16:16.651Z,20.47
2022-09-05T14:19:13.664Z,20.48
2022-09-05T14:21:42.353Z,20.51
2022-09-05T14:24:27.322Z,20.52
2022-09-05T14:26:57.741Z,20.53
2022-09-05T14:29:39.342Z,20.55
2022-09-05T14:35:30.969Z,20.54
2022-09-05T14:37:45.936Z,20.54
2022-09-05T14:38:42.506Z,20.53
2022-09-05T14:41:30.810Z,20.54
2022-09-05T14:44:12.563Z,20.52
2022-09-05T14:47:35.247Z,20.52
2022-09-05T14:50:27.854Z,20.47
2022-09-05T14:57:18.999Z,20.50
2022-09-05T15:02:44.409Z,20.50
2022-09-05T15:02:50.347Z,20.51
2022-09-05T15:04:55.845Z,20.49
2022-09-05T15:07:27.243Z,20.46
2022-09-05T15:12:19.890Z,20.42
2022-09-05T15:13:06.051Z,20.43
2022-09-05T15:15:42.464Z,20.44
2022-09-05T15:18:18.621Z,20.43
2022-09-05T15:20:48.627Z,20.41
2022-09-05T15:23:18.825Z,20.37
2022-09-05T15:26:07.852Z,20.37
2022-09-05T15:28:45.805Z,20.38
2022-09-05T15:31:24.820Z,20.37
2022-09-05T15:33:54.134Z,20.35
2022-09-05T15:36:33.325Z,20.37
2022-09-05T15:39:08.300Z,20.36
2022-09-05T15:41:43.285Z,20.36
2022-09-05T15:44:15.204Z,20.36
2022-09-05T15:46:57.614Z,20.34
2022-09-05T15:49:24.599Z,20.33
2022-09-05T15:52:14.736Z,20.32
2022-09-05T15:55:21.747Z,20.31
2022-09-05T15:58:03.379Z,20.33
2022-09-05T16:00:33.098Z,20.33
2022-09-05T16:05:19.585Z,20.35
2022-09-05T16:10:27.713Z,20.35
2022-09-05T16:10:49.817Z,20.36
2022-09-05T16:12:10.812Z,20.37
2022-09-05T16:16:10.060Z,20.39
2022-09-05T16:23:16.096Z,20.38
2022-09-05T16:23:25.665Z,20.37
2022-09-05T16:23:40.690Z,20.38
2022-09-05T16:26:25.272Z,20.37
2022-09-05T16:29:01.219Z,20.34
2022-09-05T16:31:43.939Z,20.35
2022-09-05T16:34:24.942Z,20.34
2022-09-05T16:37:08.507Z,20.34
2022-09-05T16:39:40.347Z,20.33
2022-09-05T16:42:47.521Z,20.36
2022-09-05T16:45:28.579Z,20.34
2022-09-05T16:48:07.886Z,20.33
2022-09-05T16:50:50.332Z,20.33
2022-09-05T16:53:59.198Z,20.32
2022-09-05T16:56:45.947Z,20.33
2022-09-05T16:59:12.866Z,20.33
2022-09-05T17:02:10.404Z,20.34
2022-09-05T17:05:04.127Z,20.34
2022-09-05T17:08:06.411Z,20.34
2022-09-05T17:10:57.464Z,20.35
2022-09-05T17:13:31.800Z,20.34
2022-09-05T17:16:01.819Z,20.33
2022-09-05T17:18:35.069Z,20.35
2022-09-05T17:21:08.359Z,20.34
2022-09-05T17:29:17.266Z,20.34
2022-09-05T17:29:24.594Z,20.33
2022-09-05T17:32:48.598Z,20.34
2022-09-05T17:35:23.311Z,20.28
2022-09-05T17:37:50.719Z,20.23
2022-09-05T17:40:39.122Z,20.21
2022-09-05T17:43:28.355Z,20.21
2022-09-05T17:46:14.424Z,20.23
2022-09-05T17:49:08.657Z,20.25
2022-09-05T17:51:51.503Z,20.23
2022-09-05T17:54:33.923Z,20.23
2022-09-05T17:57:28.296Z,20.22
2022-09-05T17:59:57.908Z,20.20
2022-09-05T18:02:26.917Z,20.19
2022-09-05T18:04:56.332Z,20.19
2022-09-05T18:07:27.138Z,20.18
2022-09-05T18:10:14.871Z,20.18
2022-09-05T18:13:31.934Z,20.14
2022-09-05T18:16:00.462Z,20.10
2022-09-05T18:19:28.266Z,20.11
2022-09-05T18:21:42.611Z,20.14
2022-09-05T18:24:24.313Z,20.14
2022-09-05T18:27:11.411Z,20.16
2022-09-05T18:29:58.233Z,20.16
2022-09-05T18:33:53.418Z,20.14
2022-09-05T18:36:19.532Z,20.14
2022-09-05T18:39:29.483Z,20.14
2022-09-05T18:42:18.093Z,20.14
2022-09-05T18:44:51.387Z,20.15
2022-09-05T18:47:34.178Z,20.16
2022-09-05T18:50:24.718Z,20.16
2022-09-05T18:53:10.020Z,20.17
2022-09-05T18:56:13.086Z,20.18
2022-09-05T18:59:14.741Z,20.15
2022-09-05T19:02:00.114Z,20.16
2022-09-05T19:04:46.228Z,20.17
2022-09-05T19:07:39.468Z,20.16
2022-09-05T19:10:34.397Z,20.17
2022-09-05T19:13:31.779Z,20.17
2022-09-05T19:16:43.267Z,20.19
2022-09-05T19:19:29.281Z,20.20
2022-09-05T19:22:37.328Z,20.23
2022-09-05T19:24:52.004Z,20.23
2022-09-05T19:28:47.191Z,20.22
2022-09-05T19:37:02.457Z,20.29
2022-09-05T19:37:03.611Z,20.26
2022-09-05T19:37:14.797Z,20.27
2022-09-05T19:43:31.084Z,20.31
2022-09-05T19:47:26.914Z,20.33
2022-09-05T19:47:51.103Z,20.36
2022-09-05T19:48:04.023Z,20.38
2022-09-05T19:50:34.864Z,20.38
2022-09-05T19:53:09.102Z,20.40
2022-09-05T19:55:39.311Z,20.40
2022-09-05T19:58:18.933Z,20.45
2022-09-05T20:01:00.770Z,20.44
2022-09-05T20:03:38.439Z,20.45
2022-09-05T20:06:30.792Z,20.48
2022-09-05T20:09:19.239Z,20.48
2022-09-05T20:11:58.599Z,20.50
2022-09-05T20:14:37.406Z,20.50
2022-09-05T20:17:23.907Z,20.49
2022-09-05T20:20:16.518Z,20.48
2022-09-05T20:22:50.815Z,20.47
2022-09-05T20:25:40.868Z,20.48
2022-09-05T20:28:11.909Z,20.48
2022-09-05T20:30:45.409Z,20.48
2022-09-05T20:33:31.028Z,20.49
2022-09-05T20:43:12.404Z,20.48
2022-09-05T20:43:22.634Z,20.45
2022-09-05T20:43:30.427Z,20.46
2022-09-05T20:44:53.519Z,20.42
2022-09-05T20:54:13.325Z,20.43
2022-09-05T20:54:17.851Z,20.40
2022-09-05T20:54:23.201Z,20.38
2022-09-05T20:56:31.420Z,20.38
2022-09-05T20:58:59.836Z,20.38
2022-09-05T21:01:33.139Z,20.37
2022-09-05T21:04:07.890Z,20.37
2022-09-05T21:06:37.273Z,20.37
2022-09-05T21:09:28.661Z,20.37
2022-09-05T21:12:03.489Z,20.37
2022-09-05T21:14:31.666Z,20.37
2022-09-05T21:17:15.932Z,20.37
2022-09-05T21:19:53.173Z,20.36
2022-09-05T21:22:21.975Z,20.33
2022-09-05T21:25:08.561Z,20.30
2022-09-05T21:28:05.469Z,20.29
2022-09-05T21:30:34.606Z,20.25
2022-09-05T21:33:15.999Z,20.25
2022-09-05T21:35:51.345Z,20.24
2022-09-05T21:38:32.324Z,20.23
2022-09-05T21:41:04.190Z,20.22
2022-09-05T21:47:43.874Z,20.18
2022-09-05T21:47:44.822Z,20.15
2022-09-05T21:49:10.271Z,20.14
2022-09-05T21:51:40.144Z,20.13
2022-09-05T21:59:13.263Z,20.12
2022-09-05T21:59:26.885Z,20.11
2022-09-05T21:59:59.538Z,20.10
2022-09-05T22:02:34.960Z,20.10
2022-09-05T22:05:03.669Z,20.08
2022-09-05T22:07:35.953Z,20.06
2022-09-05T22:10:04.960Z,20.04
2022-09-05T22:12:39.574Z,20.03
2022-09-05T22:15:27.673Z,20.03
2022-09-05T22:18:02.565Z,20.02
2022-09-05T22:20:46.553Z,20.01
2022-09-05T22:23:25.815Z,20.00
2022-09-05T22:25:53.404Z,19.99
2022-09-05T22:28:31.842Z,19.98
2022-09-05T22:31:07.317Z,19.95
2022-09-05T22:33:35.393Z,19.95
2022-09-05T22:36:02.606Z,19.96
2022-09-05T22:38:30.277Z,19.93
2022-09-05T22:40:57.961Z,19.93
2022-09-05T22:43:25.333Z,19.93
2022-09-05T22:45:56.563Z,19.92
2022-09-05T22:48:24.505Z,19.91
2022-09-05T22:50:52.423Z,19.92
2022-09-05T22:53:19.387Z,19.91
2022-09-05T22:55:46.407Z,19.90
2022-09-05T22:58:14.833Z,19.90
2022-09-05T23:00:42.077Z,19.89
2022-09-05T23:03:09.157Z,19.89
2022-09-05T23:05:36.065Z,19.88
2022-09-05T23:08:04.921Z,19.88
2022-09-05T23:10:32.297Z,19.87
2022-09-05T23:13:02.942Z,19.86
2022-09-05T23:15:29.818Z,19.86
2022-09-05T23:17:59.076Z,19.85
2022-09-05T23:20:28.201Z,19.84
2022-09-05T23:22:55.653Z,19.85
2022-09-05T23:25:24.037Z,19.86
2022-09-05T23:27:51.307Z,19.86
2022-09-05T23:30:18.827Z,19.85
2022-09-05T23:32:51.061Z,19.84
2022-09-05T23:35:19.366Z,19.82
2022-09-05T23:37:47.520Z,19.83
2022-09-05T23:40:17.134Z,19.80
2022-09-05T23:42:57.805Z,19.79
2022-09-05T23:45:25.770Z,19.79
2022-09-05T23:47:53.273Z,19.77
2022-09-05T23:50:21.231Z,19.77
2022-09-05T23:52:49.169Z,19.77
2022-09-05T23:55:18.711Z,19.74
2022-09-05T23:57:46.290Z,19.76
